Latest Weather Observations for Swan Island

IDT60801

Issued at 4:32 pm EST Thursday 28 July 2016 (issued every 30 minutes, with the page automatically refreshed every 10 minutes)

About weather observations | Map of weather stations | Latest weather observations for TAS | Other Formats
Station Details ID: 092123 Name: SWAN ISLAND Lat: -40.73 Lon: 148.12 Height: 15.0 m
Data from the previous 72 hours. | See also: Recent months at Swan Island
Date/Time
EST
Temp
°C
App
Temp
°C
Dew
Point
°C
Rel
Hum
%
Delta-T
°C
Wind Press
QNH
hPa
Press
MSL
hPa
Rain since
9am
mm
Dir  Spd
km/h
Gust
km/h
Spd
kts
Gust
kts
28/04:30pm 12.0 3.5 8.7 80 1.6 WNW 43 61 23 33 1012.2 1012.2 0.0
28/04:06pm 12.2 4.1 8.7 79 1.7 WNW 41 59 22 32 1012.2 1012.2 0.0
28/04:00pm 12.2 4.1 8.7 79 1.7 WNW 41 59 22 32 1012.2 1012.2 0.0
28/03:39pm 12.5 4.1 8.8 78 1.8 WNW 43 61 23 33 1012.2 1012.2 0.0
28/03:30pm 12.3 3.6 8.6 78 1.8 WNW 44 61 24 33 1012.1 1012.1 0.0
28/03:02pm 12.6 4.0 8.9 78 1.9 WNW 44 63 24 34 1011.7 1011.7 0.0
28/03:00pm 12.6 3.6 8.9 78 1.9 WNW 46 63 25 34 1011.8 1011.8 0.0
28/02:36pm 12.8 4.0 9.4 80 1.7 WNW 46 65 25 35 1011.6 1011.6 0.0
28/02:30pm 12.6 2.9 9.2 80 1.7 WNW 50 67 27 36 1011.4 1011.4 0.0
28/02:03pm 13.0 3.7 9.3 78 1.9 WNW 48 67 26 36 1011.5 1011.5 0.0
28/02:00pm 12.9 3.2 9.0 77 2.0 WNW 50 67 27 36 1011.3 1011.3 0.0
28/01:30pm 13.0 3.7 9.3 78 1.9 WNW 48 74 26 40 1011.5 1011.5 0.0
28/01:00pm 13.2 3.9 9.3 77 2.0 WNW 48 70 26 38 1011.5 1011.5 0.0
28/12:30pm 13.0 3.7 9.3 78 1.9 WNW 48 67 26 36 1011.5 1011.5 0.0
28/12:00pm 13.1 3.9 9.5 79 1.8 WNW 48 72 26 39 1011.7 1011.7 0.0
28/11:35am 12.8 4.6 9.6 81 1.6 WNW 43 63 23 34 1012.3 1012.3 0.0
28/11:30am 12.5 4.2 9.5 82 1.5 WNW 43 59 23 32 1012.5 1012.5 0.0
28/11:03am 12.7 3.8 9.3 80 1.7 WNW 46 65 25 35 1012.5 1012.5 0.0
28/11:00am 12.7 3.4 9.2 79 1.8 WNW 48 65 26 35 1012.3 1012.3 0.0
28/10:30am 12.8 4.0 9.4 80 1.7 WNW 46 70 25 38 1011.9 1011.9 0.0
28/10:00am 12.6 3.8 9.4 81 1.6 WNW 46 70 25 38 1011.7 1011.7 0.0
28/09:30am 12.4 3.9 9.2 81 1.6 W 44 67 24 36 1011.5 1011.5 0.0
28/09:00am 12.3 3.0 9.3 82 1.5 WNW 48 72 26 39 1011.2 1011.2 0.0
28/08:30am 12.0 3.1 9.2 83 1.4 WNW 46 69 25 37 1011.2 1011.2 0.0
28/08:04am 11.9 3.0 9.1 83 1.4 WNW 46 67 25 36 1011.6 1011.6 0.0
28/08:00am 11.8 2.5 9.2 84 1.3 WNW 48 65 26 35 1011.6 1011.6 0.0
28/07:30am 11.8 3.5 9.4 85 1.2 WNW 43 67 23 36 1011.5 1011.5 0.0
28/07:15am 11.9 3.0 9.3 84 1.3 WNW 46 65 25 35 1011.3 1011.3 0.0
28/07:00am 11.8 2.9 9.2 84 1.3 WNW 46 65 25 35 1011.0 1011.0 0.0
28/06:30am 11.7 3.7 9.1 84 1.3 WNW 41 67 22 36 1010.9 1010.9 0.0
28/06:01am 11.8 4.6 9.2 84 1.3 WNW 37 57 20 31 1011.0 1011.0 0.0
28/06:00am 11.8 4.2 9.2 84 1.3 WNW 39 57 21 31 1011.0 1011.0 0.0
28/05:30am 11.6 5.1 9.0 84 1.3 W 33 54 18 29 1011.3 1011.3 0.0
28/05:01am 11.4 5.1 8.8 84 1.3 W 32 50 17 27 1011.3 1011.3 0.0
28/05:00am 11.4 4.9 8.8 84 1.3 W 33 50 18 27 1011.3 1011.3 0.0
28/04:50am 11.4 5.1 9.0 85 1.2 W 32 54 17 29 1011.3 1011.3 0.0
28/04:30am 11.4 5.4 8.8 84 1.3 W 30 46 16 25 1011.4 1011.4 0.0
28/04:04am 11.2 5.6 8.6 84 1.3 W 28 46 15 25 1011.8 1011.8 0.0
28/04:00am 11.3 5.4 8.9 85 1.2 W 30 46 16 25 1011.8 1011.8 0.0
28/03:39am 11.3 5.7 8.9 85 1.2 W 28 46 15 25 1011.6 1011.6 0.0
28/03:30am 11.1 5.5 8.7 85 1.2 W 28 43 15 23 1011.5 1011.5 0.0
28/03:00am 11.2 5.3 8.9 86 1.1 W 30 46 16 25 1011.1 1011.1 0.0
28/02:43am 11.3 5.4 9.0 86 1.1 W 30 52 16 28 1011.1 1011.1 0.0
28/02:30am 11.3 4.8 8.9 85 1.2 W 33 52 18 28 1010.9 1010.9 0.0
28/02:00am 11.3 3.7 8.9 85 1.2 W 39 57 21 31 1010.1 1010.2 0.0
28/01:30am 11.3 2.3 9.0 86 1.1 W 46 61 25 33 1009.7 1009.8 0.0
28/01:05am 11.4 3.0 9.1 86 1.1 W 43 63 23 34 1009.7 1009.8 0.0
28/01:00am 11.4 3.0 9.1 86 1.2 W 43 59 23 32 1009.7 1009.8 0.0
28/12:36am 11.5 3.1 9.1 85 1.2 W 43 61 23 33 1010.0 1010.1 0.0
28/12:30am 11.5 3.1 9.1 85 1.2 W 43 61 23 33 1010.0 1010.1 0.0
28/12:00am 11.6 2.7 9.2 85 1.2 W 46 72 25 39 1009.4 1009.5 0.0
 
Date/Time
EST
Temp
°C
App
Temp
°C
Dew
Point
°C
Rel
Hum
%
Delta-T
°C
Wind Press
QNH
hPa
Press
MSL
hPa
Rain since
9am
mm
Dir  Spd
km/h
Gust
km/h
Spd
kts
Gust
kts
27/11:30pm 11.7 2.8 9.1 84 1.3 W 46 70 25 38 1009.2 1009.3 0.0
27/11:02pm 11.8 3.5 9.2 84 1.3 W 43 63 23 34 1009.5 1009.6 0.0
27/11:00pm 11.8 3.3 9.2 84 1.3 W 44 63 24 34 1009.5 1009.6 0.0
27/10:30pm 11.7 2.7 8.7 82 1.5 W 46 70 25 38 1009.3 1009.4 0.0
27/10:02pm 11.7 3.2 8.7 82 1.5 W 43 63 23 34 1009.3 1009.4 0.0
27/10:00pm 11.7 3.2 8.7 82 1.5 W 43 59 23 32 1009.4 1009.5 0.0
27/09:30pm 11.6 3.1 8.5 81 1.5 W 43 74 23 40 1009.4 1009.5 0.0
27/09:00pm 11.5 1.9 8.0 79 1.7 W 48 70 26 38 1009.2 1009.3 0.0
27/08:30pm 11.3 2.0 7.6 78 1.8 W 46 69 25 37 1008.7 1008.8 0.0
27/08:00pm 11.1 1.7 7.2 77 1.9 W 46 69 25 37 1008.3 1008.4 0.0
27/07:30pm 10.9 1.0 6.8 76 1.9 W 48 76 26 41 1008.0 1008.1 0.0
27/07:00pm 10.6 -0.1 6.4 75 2.0 W 52 74 28 40 1007.9 1008.0 0.0
27/06:30pm 10.4 -0.9 5.6 72 2.2 W 54 78 29 42 1008.0 1008.1 0.0
27/06:00pm 10.3 0.1 5.1 70 2.4 W 48 74 26 40 1007.3 1007.4 0.0
27/05:30pm 10.0 -1.0 4.8 70 2.3 W 52 76 28 41 1007.6 1007.7 0.0
27/05:00pm 9.7 -0.2 4.9 72 2.2 W 46 69 25 37 1007.0 1007.1 0.0
27/04:30pm 9.9 0.0 4.7 70 2.3 W 46 72 25 39 1007.1 1007.2 0.0
27/04:04pm 10.0 1.8 4.6 69 2.4 W 37 56 20 30 1006.9 1007.0 0.0
27/04:00pm 10.0 2.2 5.0 71 2.3 W 35 54 19 29 1007.2 1007.3 0.0
27/03:47pm 10.4 2.2 5.0 69 2.4 W 37 56 20 30 1007.6 1007.7 0.0
27/03:30pm 10.1 0.1 4.3 67 2.6 W 46 61 25 33 1007.6 1007.7 0.0
27/03:16pm 10.2 0.7 4.1 66 2.7 W 43 61 23 33 1007.5 1007.6 0.0
27/03:00pm 10.3 -0.2 3.8 64 2.9 W 48 63 26 34 1007.4 1007.5 0.0
27/02:31pm 10.7 1.0 4.0 63 3.0 W 44 63 24 34 1007.3 1007.4 0.0
27/02:30pm 10.7 0.7 4.2 64 2.9 W 46 63 25 34 1007.3 1007.4 0.0
27/02:16pm 10.5 1.4 3.8 63 3.0 W 41 61 22 33 1006.7 1006.8 0.0
27/02:00pm 10.2 -0.4 3.3 62 3.0 W 48 61 26 33 1006.6 1006.7 0.0
27/01:30pm 10.3 0.4 2.9 60 3.2 W 44 63 24 34 1006.2 1006.3 0.0
27/01:00pm 10.3 0.9 2.4 58 3.4 W 41 54 22 29 1006.5 1006.6 0.0
27/12:30pm 10.3 2.1 2.7 59 3.3 W 35 48 19 26 1006.4 1006.5 0.0
27/12:00pm 10.2 3.1 3.7 64 2.9 W 30 41 16 22 1007.0 1007.1 0.0
27/11:30am 10.3 4.1 1.9 56 3.5 W 24 35 13 19 1006.7 1006.8 0.0
27/11:00am 10.7 6.3 4.6 66 2.8 WSW 17 24 9 13 1006.4 1006.5 0.0
27/10:30am 9.7 5.3 4.7 71 2.2 SW 17 30 9 16 1005.9 1006.0 0.0
27/10:00am 9.9 7.1 7.0 82 1.4 SW 11 17 6 9 1005.4 1005.5 0.0
27/09:30am 9.4 6.3 7.2 86 1.0 S 13 20 7 11 1004.6 1004.7 0.0
27/09:00am 9.4 5.2 7.5 88 0.9 SW 19 28 10 15 1003.7 1003.7 9.6
27/08:30am 9.2 5.4 7.5 89 0.8 WSW 17 28 9 15 1002.9 1002.9 9.6
27/08:00am 9.1 5.2 7.2 88 0.9 SW 17 26 9 14 1002.3 1002.3 9.6
27/07:30am 9.8 5.8 8.1 89 0.8 WSW 19 30 10 16 1001.5 1001.5 9.6
27/07:00am 10.4 4.4 8.7 89 0.8 WNW 30 39 16 21 1000.6 1000.6 9.6
27/06:30am 10.4 3.1 8.7 89 0.8 WNW 37 50 20 27 1000.2 1000.2 9.6
27/06:04am 10.5 2.9 8.9 90 0.8 WNW 39 59 21 32 999.9 999.9 9.6
27/06:00am 10.5 2.5 8.9 90 0.8 WNW 41 59 22 32 999.8 999.8 9.6
27/05:41am 10.2 3.7 9.0 92 0.6 WNW 33 56 18 30 999.5 999.5 9.6
27/05:30am 10.2 1.8 8.8 91 0.7 WNW 43 61 23 33 999.5 999.5 9.4
27/05:00am 10.2 0.4 8.6 90 0.8 WNW 50 72 27 39 999.1 999.1 8.4
27/04:30am 10.5 1.5 8.8 89 0.8 WNW 46 67 25 36 998.6 998.6 7.0
27/04:00am 10.7 -0.3 8.3 85 1.2 NW 56 76 30 41 998.4 998.4 5.0
27/03:44am 10.7 -0.3 8.5 86 1.1 NW 56 74 30 40 998.6 998.6 5.0
27/03:30am 10.6 -0.3 8.7 88 0.9 NW 56 70 30 38 998.8 998.8 5.0
27/03:09am 10.2 -1.0 8.3 88 0.9 NW 57 76 31 41 998.8 998.8 5.0
27/03:00am 10.2 -1.0 8.5 89 0.8 NW 57 72 31 39 999.1 999.1 5.0
27/02:33am 10.7 -1.8 7.6 81 1.5 NW 63 83 34 45 999.3 999.3 3.8
27/02:30am 10.9 -2.3 7.8 81 1.5 NW 67 83 36 45 999.1 999.1 3.8
27/02:18am 10.7 -1.8 7.6 81 1.5 NW 63 83 34 45 999.0 999.0 3.8
27/02:00am 10.6 -2.4 7.3 80 1.6 NW 65 80 35 43 999.6 999.6 3.8
27/01:38am 11.0 -1.6 7.1 77 1.9 NW 63 82 34 44 999.6 999.6 3.8
27/01:30am 11.0 -1.2 7.3 78 1.8 NW 61 74 33 40 999.9 999.9 3.8
27/01:00am 10.9 -0.6 7.2 78 1.8 NW 57 72 31 39 1000.3 1000.3 3.8
27/12:30am 10.9 -1.4 6.8 76 1.9 NW 61 80 33 43 1000.3 1000.3 3.8
27/12:00am 10.9 -1.7 7.4 79 1.7 NW 63 74 34 40 1000.6 1000.6 3.8
 
Date/Time
EST
Temp
°C
App
Temp
°C
Dew
Point
°C
Rel
Hum
%
Delta-T
°C
Wind Press
QNH
hPa
Press
MSL
hPa
Rain since
9am
mm
Dir  Spd
km/h
Gust
km/h
Spd
kts
Gust
kts
26/11:30pm 10.7 -1.2 7.2 79 1.7 NW 59 76 32 41 1000.8 1000.8 3.8
26/11:27pm 10.8 -0.6 7.5 80 1.6 NW 57 76 31 41 1000.8 1000.8 3.8
26/11:00pm 10.2 -2.8 7.1 81 1.5 NW 65 78 35 42 1000.9 1000.9 3.8
26/10:30pm 10.4 -2.2 7.3 81 1.5 NW 63 78 34 42 1001.1 1001.1 3.8
26/10:03pm 10.8 -0.6 7.5 80 1.6 NW 57 76 31 41 1001.6 1001.6 3.6
26/10:00pm 10.7 -1.5 7.4 80 1.6 NW 61 76 33 41 1001.6 1001.6 3.6
26/09:30pm 9.7 -0.4 7.5 86 1.0 NW 50 69 27 37 1002.0 1002.0 3.6
26/09:00pm 8.7 -0.4 7.0 89 0.8 WNW 44 65 24 35 1002.3 1002.3 3.6
26/08:39pm 8.5 0.2 6.3 86 1.0 WNW 39 61 21 33 1002.8 1002.8 3.0
26/08:30pm 9.1 0.2 6.9 86 1.0 WNW 43 56 23 30 1002.7 1002.7 2.0
26/08:10pm 8.8 1.4 6.6 86 1.0 WNW 35 56 19 30 1003.1 1003.1 1.6
26/08:00pm 8.7 0.8 6.2 84 1.2 WNW 37 52 20 28 1002.9 1002.9 1.0
26/07:30pm 8.9 0.5 5.8 81 1.4 WNW 39 54 21 29 1003.0 1003.0 0.6
26/07:20pm 9.5 1.6 6.2 80 1.5 WNW 37 57 20 31 1003.1 1003.1 0.4
26/07:00pm 9.2 0.9 5.9 80 1.5 WNW 39 54 21 29 1003.3 1003.3 0.4
26/06:45pm 9.1 0.7 5.7 79 1.5 WNW 39 57 21 31 1003.3 1003.3 0.4
26/06:30pm 8.8 0.0 5.5 80 1.5 WNW 41 56 22 30 1003.3 1003.3 0.4
26/06:26pm 8.9 0.2 5.8 81 1.4 WNW 41 56 22 30 1003.3 1003.3 0.4
26/06:00pm 9.3 -2.3 5.7 78 1.6 WNW 56 76 30 41 1002.9 1002.9 0.2
26/05:30pm 10.0 0.0 6.0 76 1.8 WNW 48 67 26 36 1002.6 1002.6 0.2
26/05:00pm 9.4 0.2 5.6 77 1.7 WNW 43 65 23 35 1002.4 1002.4 0.2
26/04:33pm 10.8 2.6 4.7 66 2.8 WNW 37 57 20 31 1002.3 1002.3 0.0
26/04:30pm 10.7 2.4 4.0 63 3.0 WNW 37 54 20 29 1002.3 1002.3 0.0
26/04:05pm 10.7 1.3 4.2 64 2.9 WNW 43 61 23 33 1002.4 1002.4 0.0
26/04:00pm 10.6 0.8 3.4 61 3.2 WNW 44 61 24 33 1002.3 1002.3 0.0
26/03:30pm 10.2 -0.4 3.3 62 3.0 WNW 48 70 26 38 1002.6 1002.6 0.0
26/03:02pm 10.0 1.4 4.6 69 2.4 W 39 57 21 31 1002.9 1002.9 0.0
26/03:00pm 10.0 0.6 4.6 69 2.4 W 43 57 23 31 1002.8 1002.8 0.0
26/02:32pm 10.7 1.2 3.7 62 3.1 WNW 43 61 23 33 1002.9 1002.9 0.0
26/02:30pm 10.7 1.5 3.5 61 3.2 WNW 41 57 22 31 1002.9 1002.9 0.0
26/02:06pm 10.8 2.2 4.7 66 2.8 WNW 39 57 21 31 1002.9 1002.9 0.0
26/02:00pm 10.6 1.2 4.5 66 2.7 WNW 43 57 23 31 1002.9 1002.9 0.0
26/01:30pm 10.4 0.8 4.5 67 2.6 WNW 44 69 24 37 1003.0 1003.0 0.0
26/01:00pm 10.6 1.0 3.6 62 3.1 WNW 43 67 23 36 1003.1 1003.1 0.0
26/12:30pm 10.9 1.3 3.2 59 3.4 WNW 43 61 23 33 1003.1 1003.1 0.0
26/12:00pm 10.8 1.2 3.4 60 3.3 WNW 43 65 23 35 1003.0 1003.0 0.0
26/11:30am 10.6 1.3 2.9 59 3.3 W 41 61 22 33 1003.2 1003.2 0.0
26/11:00am 10.5 0.9 3.3 61 3.2 W 43 61 23 33 1003.1 1003.1 0.0
26/10:30am 10.0 0.2 3.3 63 2.9 W 44 70 24 38 1003.0 1003.0 0.0
26/10:00am 9.9 0.0 2.7 61 3.1 W 44 65 24 35 1002.7 1002.7 0.0
26/09:30am 9.5 -0.4 2.8 63 2.9 W 44 65 24 35 1002.2 1002.2 0.0
26/09:00am 9.3 -0.2 3.7 68 2.5 W 43 63 23 34 1002.4 1002.4 10.6
26/08:30am 8.7 -3.3 3.5 70 2.2 W 56 78 30 42 1001.7 1001.7 10.6
26/08:00am 8.1 -2.8 3.6 73 1.9 W 50 76 27 41 1001.5 1001.5 10.6
26/07:30am 8.1 -3.5 4.1 76 1.7 W 54 74 29 40 1001.0 1001.0 10.6
26/07:00am 7.8 -3.0 4.2 78 1.6 W 50 74 27 40 1000.6 1000.6 10.6
26/06:30am 6.8 -3.4 3.4 79 1.4 W 46 70 25 38 1000.2 1000.2 10.6
26/06:00am 8.8 -1.7 3.4 69 2.3 W 48 72 26 39 999.3 999.3 8.8
26/05:30am 8.7 -1.4 3.5 70 2.2 W 46 72 25 39 998.8 998.8 8.8
26/05:00am 8.3 -2.9 3.9 74 1.9 W 52 74 28 40 998.0 998.0 8.8
26/04:30am 8.3 -2.0 4.7 78 1.6 WNW 48 69 26 37 997.5 997.5 8.8
26/04:00am 6.9 -2.8 3.7 80 1.4 WNW 44 69 24 37 997.4 997.4 8.8
26/03:32am 8.5 -1.9 4.3 75 1.8 W 48 85 26 46 997.3 997.3 7.6
26/03:30am 8.9 -0.6 4.7 75 1.9 W 44 67 24 36 997.3 997.3 7.6
26/03:00am 9.2 -0.6 3.6 68 2.5 W 44 65 24 35 996.8 996.8 7.4
26/02:30am 8.7 -2.5 3.9 72 2.1 WNW 52 78 28 42 996.5 996.5 7.4
26/02:00am 8.5 -2.6 4.5 76 1.8 WNW 52 72 28 39 996.3 996.3 7.4
26/01:30am 7.3 -2.6 4.8 84 1.1 W 46 76 25 41 996.4 996.4 7.4
26/01:08am 8.4 -1.7 3.8 73 2.0 W 46 100 25 54 996.3 996.3 6.6
26/01:00am 9.0 -0.4 4.4 73 2.0 W 43 61 23 33 996.0 996.0 6.4
26/12:30am 8.7 -0.7 4.5 75 1.9 W 43 61 23 33 995.7 995.7 6.4
26/12:00am 8.6 -2.0 5.2 79 1.5 W 50 70 27 38 995.6 995.6 6.4
 
Date/Time
EST
Temp
°C
App
Temp
°C
Dew
Point
°C
Rel
Hum
%
Delta-T
°C
Wind Press
QNH
hPa
Press
MSL
hPa
Rain since
9am
mm
Dir  Spd
km/h
Gust
km/h
Spd
kts
Gust
kts
25/11:39pm 7.6 -4.5 4.2 79 1.5 W 57 98 31 53 995.8 995.8 6.4
25/11:35pm 7.3 -5.3 3.4 76 1.7 W 59 98 32 53 995.9 995.9 6.4
25/11:32pm 7.8 -4.9 3.3 73 1.9 W 59 98 32 53 995.6 995.6 6.2
25/11:30pm 8.7 -2.9 3.7 71 2.2 WNW 54 85 29 46 995.6 995.6 6.2
25/11:00pm 9.1 -1.1 5.1 76 1.8 WNW 48 78 26 42 994.8 994.8 6.2
25/10:39pm 8.9 -1.7 5.3 78 1.6 WNW 50 89 27 48 994.7 994.7 6.2
25/10:38pm 8.8 -2.2 5.2 78 1.6 WNW 52 89 28 48 994.7 994.7 6.2
25/10:32pm 8.3 -3.1 4.9 79 1.5 WNW 54 89 29 48 994.9 994.9 6.2
25/10:31pm 8.4 -2.6 5.0 79 1.5 WNW 52 89 28 48 994.8 994.8 6.2
25/10:30pm 8.8 -1.7 5.5 80 1.5 W 50 89 27 48 994.9 994.9 6.2
25/10:00pm 8.9 -1.1 6.3 84 1.2 W 48 78 26 42 994.6 994.6 6.2
25/09:30pm 9.5 0.9 8.1 91 0.7 WNW 43 65 23 35 993.8 993.8 6.2
25/09:22pm 8.9 0.0 7.5 91 0.7 WNW 44 65 24 35 993.6 993.6 6.2
25/09:17pm 8.5 -1.7 7.1 91 0.7 WNW 50 72 27 39 993.6 993.6 6.2
25/09:00pm 8.7 -4.2 7.5 92 0.6 WNW 65 89 35 48 994.4 994.4 5.6
25/08:30pm 9.9 -2.5 8.2 89 0.8 NW 63 85 34 46 993.9 993.9 3.8
25/08:11pm 10.8 -2.4 8.0 83 1.4 NNW 67 89 36 48 993.5 993.5 1.8
25/08:00pm 10.9 -2.6 8.3 84 1.3 NNW 69 83 37 45 993.8 993.8 1.8
25/07:40pm 10.5 -1.6 7.9 84 1.3 NNW 61 82 33 44 994.5 994.5 1.6
25/07:30pm 10.6 -1.9 7.7 82 1.4 NNW 63 78 34 42 995.0 995.0 1.4
25/07:10pm 11.1 -1.5 7.2 77 1.9 NNW 63 83 34 45 995.6 995.6 0.6
25/07:00pm 11.9 0.5 7.4 74 2.2 NNW 57 69 31 37 995.9 995.9 0.6
25/06:37pm 11.7 0.2 7.2 74 2.2 NW 57 76 31 41 996.4 996.4 0.6
25/06:30pm 11.6 -0.3 7.1 74 2.2 NW 59 76 32 41 996.5 996.5 0.6
25/06:00pm 11.7 1.0 8.0 78 1.8 NW 54 67 29 36 996.7 996.7 0.6
25/05:30pm 11.2 2.0 8.2 82 1.5 NW 46 65 25 35 996.8 996.8 0.6
25/05:28pm 11.1 2.5 8.3 83 1.4 NW 43 65 23 35 996.9 996.9 0.6
25/05:00pm 11.2 2.9 7.7 79 1.7 NW 41 54 22 29 997.7 997.7 0.6

Other Formats:

Comma delimited format used in spreadsheet applications
http://www.bom.gov.au/fwo/IDT60801/IDT60801.95985.axf

JavaScript Object Notation format (JSON) in row-major order
http://www.bom.gov.au/fwo/IDT60801/IDT60801.95985.json